7TS1 weather

Public forecast

Using degrees Fahrenheit for public forecast. Weather courtesy of forecast.io.

Closest aviation weather report (METAR) to Cowden Heliport

Closest report is Fort Worth Meacham International Airport, 3.1 nm (5.8 km) SSE. Retrieved 2020/08/12 11:53 UTC (16 minutes ago):

KFTW 121153Z 19008KT 10SM CLR 27/22 A2991 RMK AO2 SLP115 T02670222 10306 20267 53009 TSNO

Closest aviation forecast (TAF) to Cowden Heliport

Closest forecast is Fort Worth Meacham International Airport, 3.1 nm (5.8 km) SSE. Retrieved 2020/08/12 12:36 UTC (0 seconds ago):

TAF KFTW 121135Z 1212/1312 18014KT P6SM FEW250